sensor_id;sensor_type;location;lat;lon;timestamp;P1;durP1;ratioP1;P2;durP2;ratioP2
10596;SDS011;5346;48.766;8.674;2023-04-05T00:01:39;9.10;;;6.03;;
10596;SDS011;5346;48.766;8.674;2023-04-05T00:04:08;11.57;;;6.53;;
10596;SDS011;5346;48.766;8.674;2023-04-05T00:06:42;9.27;;;6.17;;
10596;SDS011;5346;48.766;8.674;2023-04-05T00:09:11;9.93;;;5.50;;
10596;SDS011;5346;48.766;8.674;2023-04-05T00:11:46;10.93;;;6.23;;
10596;SDS011;5346;48.766;8.674;2023-04-05T00:14:14;8.07;;;6.23;;
10596;SDS011;5346;48.766;8.674;2023-04-05T00:16:47;9.40;;;6.03;;
10596;SDS011;5346;48.766;8.674;2023-04-05T00:19:15;7.60;;;5.57;;
10596;SDS011;5346;48.766;8.674;2023-04-05T00:21:49;11.77;;;6.23;;
10596;SDS011;5346;48.766;8.674;2023-04-05T00:24:19;7.73;;;6.03;;
10596;SDS011;5346;48.766;8.674;2023-04-05T00:26:53;10.50;;;6.43;;
10596;SDS011;5346;48.766;8.674;2023-04-05T00:29:22;10.67;;;6.10;;
10596;SDS011;5346;48.766;8.674;2023-04-05T00:31:55;10.33;;;6.43;;
10596;SDS011;5346;48.766;8.674;2023-04-05T00:34:23;10.00;;;5.63;;
10596;SDS011;5346;48.766;8.674;2023-04-05T00:36:56;10.50;;;6.80;;
10596;SDS011;5346;48.766;8.674;2023-04-05T00:39:24;12.60;;;7.13;;
10596;SDS011;5346;48.766;8.674;2023-04-05T00:41:57;12.60;;;6.57;;
10596;SDS011;5346;48.766;8.674;2023-04-05T00:44:27;9.90;;;6.63;;
10596;SDS011;5346;48.766;8.674;2023-04-05T00:47:01;8.83;;;6.10;;
10596;SDS011;5346;48.766;8.674;2023-04-05T00:49:29;9.57;;;6.50;;
10596;SDS011;5346;48.766;8.674;2023-04-05T00:52:06;11.20;;;6.70;;
10596;SDS011;5346;48.766;8.674;2023-04-05T00:54:48;10.27;;;6.70;;
10596;SDS011;5346;48.766;8.674;2023-04-05T00:57:17;9.83;;;6.53;;
10596;SDS011;5346;48.766;8.674;2023-04-05T00:59:50;11.67;;;6.67;;
10596;SDS011;5346;48.766;8.674;2023-04-05T01:05:11;9.37;;;6.93;;
10596;SDS011;5346;48.766;8.674;2023-04-05T01:08:21;10.90;;;6.50;;
10596;SDS011;5346;48.766;8.674;2023-04-05T01:11:08;9.10;;;5.93;;
10596;SDS011;5346;48.766;8.674;2023-04-05T01:13:44;9.00;;;6.33;;
10596;SDS011;5346;48.766;8.674;2023-04-05T01:16:18;8.67;;;5.80;;
10596;SDS011;5346;48.766;8.674;2023-04-05T01:18:53;9.97;;;6.60;;
10596;SDS011;5346;48.766;8.674;2023-04-05T01:24:15;9.33;;;6.27;;
10596;SDS011;5346;48.766;8.674;2023-04-05T01:27:07;11.13;;;6.53;;
10596;SDS011;5346;48.766;8.674;2023-04-05T01:29:55;11.33;;;7.00;;
10596;SDS011;5346;48.766;8.674;2023-04-05T01:36:03;9.03;;;5.97;;
10596;SDS011;5346;48.766;8.674;2023-04-05T01:38:50;11.93;;;6.30;;
10596;SDS011;5346;48.766;8.674;2023-04-05T01:41:25;10.40;;;6.40;;
10596;SDS011;5346;48.766;8.674;2023-04-05T01:43:59;9.80;;;5.93;;
10596;SDS011;5346;48.766;8.674;2023-04-05T01:46:33;8.03;;;5.87;;
10596;SDS011;5346;48.766;8.674;2023-04-05T01:49:09;9.80;;;6.33;;
10596;SDS011;5346;48.766;8.674;2023-04-05T01:51:44;9.67;;;6.30;;
10596;SDS011;5346;48.766;8.674;2023-04-05T01:54:17;11.10;;;6.67;;
10596;SDS011;5346;48.766;8.674;2023-04-05T01:56:44;8.60;;;6.50;;
10596;SDS011;5346;48.766;8.674;2023-04-05T01:59:18;12.27;;;7.30;;
10596;SDS011;5346;48.766;8.674;2023-04-05T02:01:46;9.73;;;6.47;;
10596;SDS011;5346;48.766;8.674;2023-04-05T02:04:19;11.60;;;6.73;;
10596;SDS011;5346;48.766;8.674;2023-04-05T02:06:53;9.83;;;5.73;;
10596;SDS011;5346;48.766;8.674;2023-04-05T02:09:27;10.93;;;6.43;;
10596;SDS011;5346;48.766;8.674;2023-04-05T02:12:01;8.27;;;5.97;;
10596;SDS011;5346;48.766;8.674;2023-04-05T02:14:36;9.83;;;5.67;;
10596;SDS011;5346;48.766;8.674;2023-04-05T02:17:03;15.33;;;6.13;;
10596;SDS011;5346;48.766;8.674;2023-04-05T02:19:31;10.13;;;6.37;;
10596;SDS011;5346;48.766;8.674;2023-04-05T02:22:08;10.77;;;6.23;;
10596;SDS011;5346;48.766;8.674;2023-04-05T02:24:36;11.30;;;6.83;;
10596;SDS011;5346;48.766;8.674;2023-04-05T02:27:09;9.40;;;5.80;;
10596;SDS011;5346;48.766;8.674;2023-04-05T02:29:43;9.43;;;6.07;;
10596;SDS011;5346;48.766;8.674;2023-04-05T02:32:17;10.30;;;6.00;;
10596;SDS011;5346;48.766;8.674;2023-04-05T02:34:51;10.77;;;6.83;;
10596;SDS011;5346;48.766;8.674;2023-04-05T02:37:19;11.93;;;6.50;;
10596;SDS011;5346;48.766;8.674;2023-04-05T02:39:59;10.97;;;6.23;;
10596;SDS011;5346;48.766;8.674;2023-04-05T02:42:35;8.10;;;5.80;;
10596;SDS011;5346;48.766;8.674;2023-04-05T02:45:12;10.93;;;7.00;;
10596;SDS011;5346;48.766;8.674;2023-04-05T02:47:45;9.77;;;6.70;;
10596;SDS011;5346;48.766;8.674;2023-04-05T02:50:13;9.83;;;6.40;;
10596;SDS011;5346;48.766;8.674;2023-04-05T02:52:53;9.50;;;6.40;;
10596;SDS011;5346;48.766;8.674;2023-04-05T02:55:21;8.77;;;5.93;;
10596;SDS011;5346;48.766;8.674;2023-04-05T02:57:57;7.70;;;5.90;;
10596;SDS011;5346;48.766;8.674;2023-04-05T03:00:34;9.40;;;6.80;;
10596;SDS011;5346;48.766;8.674;2023-04-05T03:03:08;10.23;;;6.33;;
10596;SDS011;5346;48.766;8.674;2023-04-05T03:05:36;8.17;;;5.90;;
10596;SDS011;5346;48.766;8.674;2023-04-05T03:08:09;12.90;;;6.43;;
10596;SDS011;5346;48.766;8.674;2023-04-05T03:10:47;8.93;;;6.23;;
10596;SDS011;5346;48.766;8.674;2023-04-05T03:13:23;11.57;;;6.00;;
10596;SDS011;5346;48.766;8.674;2023-04-05T03:15:57;11.33;;;6.20;;
10596;SDS011;5346;48.766;8.674;2023-04-05T03:18:30;9.13;;;5.93;;
10596;SDS011;5346;48.766;8.674;2023-04-05T03:21:05;7.43;;;5.30;;
10596;SDS011;5346;48.766;8.674;2023-04-05T03:23:37;10.30;;;5.77;;
10596;SDS011;5346;48.766;8.674;2023-04-05T03:26:13;8.20;;;5.27;;
10596;SDS011;5346;48.766;8.674;2023-04-05T03:28:40;10.33;;;6.07;;
10596;SDS011;5346;48.766;8.674;2023-04-05T03:31:16;8.10;;;5.50;;
10596;SDS011;5346;48.766;8.674;2023-04-05T03:33:50;9.80;;;5.90;;
10596;SDS011;5346;48.766;8.674;2023-04-05T03:36:17;9.77;;;6.13;;
10596;SDS011;5346;48.766;8.674;2023-04-05T03:38:51;10.93;;;5.43;;
10596;SDS011;5346;48.766;8.674;2023-04-05T03:41:19;9.97;;;5.80;;
10596;SDS011;5346;48.766;8.674;2023-04-05T03:43:52;10.80;;;6.53;;
10596;SDS011;5346;48.766;8.674;2023-04-05T03:46:19;8.77;;;5.70;;
10596;SDS011;5346;48.766;8.674;2023-04-05T03:48:47;8.50;;;5.67;;
10596;SDS011;5346;48.766;8.674;2023-04-05T03:51:22;10.17;;;6.23;;
10596;SDS011;5346;48.766;8.674;2023-04-05T03:54:04;9.30;;;5.90;;
10596;SDS011;5346;48.766;8.674;2023-04-05T03:56:37;11.67;;;6.50;;
10596;SDS011;5346;48.766;8.674;2023-04-05T03:59:05;11.10;;;5.33;;
10596;SDS011;5346;48.766;8.674;2023-04-05T04:01:39;9.33;;;6.40;;
10596;SDS011;5346;48.766;8.674;2023-04-05T04:04:06;10.60;;;6.47;;
10596;SDS011;5346;48.766;8.674;2023-04-05T04:06:33;9.40;;;5.60;;
10596;SDS011;5346;48.766;8.674;2023-04-05T04:09:07;7.87;;;5.63;;
10596;SDS011;5346;48.766;8.674;2023-04-05T04:11:34;9.27;;;6.07;;
10596;SDS011;5346;48.766;8.674;2023-04-05T04:14:08;10.77;;;6.13;;
10596;SDS011;5346;48.766;8.674;2023-04-05T04:16:42;8.83;;;6.20;;
10596;SDS011;5346;48.766;8.674;2023-04-05T04:19:17;10.40;;;6.00;;
10596;SDS011;5346;48.766;8.674;2023-04-05T04:21:44;11.00;;;5.93;;
10596;SDS011;5346;48.766;8.674;2023-04-05T04:24:24;8.70;;;6.20;;
10596;SDS011;5346;48.766;8.674;2023-04-05T04:26:58;12.80;;;6.30;;
10596;SDS011;5346;48.766;8.674;2023-04-05T04:29:35;9.00;;;5.77;;
10596;SDS011;5346;48.766;8.674;2023-04-05T04:32:04;7.40;;;5.33;;
10596;SDS011;5346;48.766;8.674;2023-04-05T04:34:40;8.27;;;5.37;;
10596;SDS011;5346;48.766;8.674;2023-04-05T04:37:16;9.73;;;5.40;;
10596;SDS011;5346;48.766;8.674;2023-04-05T04:39:44;8.90;;;5.63;;
10596;SDS011;5346;48.766;8.674;2023-04-05T04:42:18;7.73;;;5.17;;
10596;SDS011;5346;48.766;8.674;2023-04-05T04:44:48;8.40;;;5.27;;
10596;SDS011;5346;48.766;8.674;2023-04-05T04:47:21;9.40;;;5.20;;
10596;SDS011;5346;48.766;8.674;2023-04-05T04:49:49;7.77;;;5.87;;
10596;SDS011;5346;48.766;8.674;2023-04-05T04:52:22;11.50;;;6.27;;
10596;SDS011;5346;48.766;8.674;2023-04-05T04:55:02;6.67;;;4.93;;
10596;SDS011;5346;48.766;8.674;2023-04-05T04:57:31;7.13;;;4.83;;
10596;SDS011;5346;48.766;8.674;2023-04-05T05:00:05;7.90;;;5.53;;
10596;SDS011;5346;48.766;8.674;2023-04-05T05:02:45;6.77;;;5.13;;
10596;SDS011;5346;48.766;8.674;2023-04-05T05:05:19;7.57;;;4.90;;
10596;SDS011;5346;48.766;8.674;2023-04-05T05:07:48;8.67;;;6.30;;
10596;SDS011;5346;48.766;8.674;2023-04-05T05:10:15;9.17;;;5.40;;
10596;SDS011;5346;48.766;8.674;2023-04-05T05:12:48;9.00;;;5.70;;
10596;SDS011;5346;48.766;8.674;2023-04-05T05:15:23;8.13;;;5.90;;
10596;SDS011;5346;48.766;8.674;2023-04-05T05:17:57;9.33;;;6.20;;
10596;SDS011;5346;48.766;8.674;2023-04-05T05:20:25;8.47;;;5.70;;
10596;SDS011;5346;48.766;8.674;2023-04-05T05:23:01;8.53;;;5.63;;
10596;SDS011;5346;48.766;8.674;2023-04-05T05:25:30;7.90;;;5.40;;
10596;SDS011;5346;48.766;8.674;2023-04-05T05:28:06;9.63;;;5.43;;
10596;SDS011;5346;48.766;8.674;2023-04-05T05:30:39;7.93;;;5.50;;
10596;SDS011;5346;48.766;8.674;2023-04-05T05:33:15;8.63;;;5.77;;
10596;SDS011;5346;48.766;8.674;2023-04-05T05:35:50;8.57;;;5.07;;
10596;SDS011;5346;48.766;8.674;2023-04-05T05:38:24;6.43;;;5.50;;
10596;SDS011;5346;48.766;8.674;2023-04-05T05:40:58;8.80;;;5.60;;
10596;SDS011;5346;48.766;8.674;2023-04-05T05:43:32;8.93;;;5.40;;
10596;SDS011;5346;48.766;8.674;2023-04-05T05:46:06;10.30;;;4.90;;
10596;SDS011;5346;48.766;8.674;2023-04-05T05:48:34;9.30;;;5.03;;
10596;SDS011;5346;48.766;8.674;2023-04-05T05:51:14;7.20;;;4.20;;
10596;SDS011;5346;48.766;8.674;2023-04-05T05:53:48;6.03;;;4.50;;
10596;SDS011;5346;48.766;8.674;2023-04-05T05:56:22;5.73;;;4.43;;
10596;SDS011;5346;48.766;8.674;2023-04-05T05:58:49;7.73;;;4.83;;
10596;SDS011;5346;48.766;8.674;2023-04-05T06:01:27;5.93;;;4.13;;
10596;SDS011;5346;48.766;8.674;2023-04-05T06:04:05;6.37;;;4.63;;
10596;SDS011;5346;48.766;8.674;2023-04-05T06:06:39;7.33;;;4.47;;
10596;SDS011;5346;48.766;8.674;2023-04-05T06:09:16;7.00;;;4.43;;
10596;SDS011;5346;48.766;8.674;2023-04-05T06:11:43;9.47;;;4.53;;
10596;SDS011;5346;48.766;8.674;2023-04-05T06:14:23;5.33;;;4.03;;
10596;SDS011;5346;48.766;8.674;2023-04-05T06:16:58;8.33;;;4.47;;
10596;SDS011;5346;48.766;8.674;2023-04-05T06:19:27;9.33;;;4.80;;
10596;SDS011;5346;48.766;8.674;2023-04-05T06:22:00;6.67;;;3.80;;
10596;SDS011;5346;48.766;8.674;2023-04-05T06:24:28;5.27;;;3.90;;
10596;SDS011;5346;48.766;8.674;2023-04-05T06:27:04;7.60;;;4.23;;
10596;SDS011;5346;48.766;8.674;2023-04-05T06:29:31;9.97;;;4.70;;
10596;SDS011;5346;48.766;8.674;2023-04-05T06:32:04;6.67;;;4.37;;
10596;SDS011;5346;48.766;8.674;2023-04-05T06:34:32;7.83;;;4.10;;
10596;SDS011;5346;48.766;8.674;2023-04-05T06:37:06;6.30;;;4.27;;
10596;SDS011;5346;48.766;8.674;2023-04-05T06:39:40;6.13;;;4.00;;
10596;SDS011;5346;48.766;8.674;2023-04-05T06:42:14;6.27;;;3.90;;
10596;SDS011;5346;48.766;8.674;2023-04-05T06:44:48;6.13;;;4.43;;
10596;SDS011;5346;48.766;8.674;2023-04-05T06:47:16;6.60;;;3.93;;
10596;SDS011;5346;48.766;8.674;2023-04-05T06:49:50;6.90;;;4.00;;
10596;SDS011;5346;48.766;8.674;2023-04-05T06:52:17;5.67;;;3.93;;
10596;SDS011;5346;48.766;8.674;2023-04-05T06:55:04;5.03;;;3.60;;
10596;SDS011;5346;48.766;8.674;2023-04-05T06:57:40;6.97;;;4.00;;
10596;SDS011;5346;48.766;8.674;2023-04-05T07:00:15;6.10;;;4.23;;
10596;SDS011;5346;48.766;8.674;2023-04-05T07:02:43;6.50;;;4.07;;
10596;SDS011;5346;48.766;8.674;2023-04-05T07:05:17;6.40;;;3.67;;
10596;SDS011;5346;48.766;8.674;2023-04-05T07:07:51;4.77;;;3.30;;
10596;SDS011;5346;48.766;8.674;2023-04-05T07:10:20;6.83;;;3.60;;
10596;SDS011;5346;48.766;8.674;2023-04-05T07:12:54;6.80;;;4.00;;
10596;SDS011;5346;48.766;8.674;2023-04-05T07:15:22;5.37;;;3.70;;
10596;SDS011;5346;48.766;8.674;2023-04-05T07:17:55;5.47;;;3.77;;
10596;SDS011;5346;48.766;8.674;2023-04-05T07:20:23;5.70;;;4.00;;
10596;SDS011;5346;48.766;8.674;2023-04-05T07:22:50;5.97;;;3.60;;
10596;SDS011;5346;48.766;8.674;2023-04-05T07:25:25;4.53;;;3.53;;
10596;SDS011;5346;48.766;8.674;2023-04-05T07:28:00;6.67;;;4.00;;
10596;SDS011;5346;48.766;8.674;2023-04-05T07:30:34;7.27;;;3.47;;
10596;SDS011;5346;48.766;8.674;2023-04-05T07:33:02;9.07;;;3.47;;
10596;SDS011;5346;48.766;8.674;2023-04-05T07:35:36;5.00;;;4.00;;
10596;SDS011;5346;48.766;8.674;2023-04-05T07:38:04;5.77;;;3.67;;
10596;SDS011;5346;48.766;8.674;2023-04-05T07:40:38;5.00;;;3.30;;
10596;SDS011;5346;48.766;8.674;2023-04-05T07:43:06;6.83;;;3.43;;
10596;SDS011;5346;48.766;8.674;2023-04-05T07:45:40;4.33;;;3.07;;
10596;SDS011;5346;48.766;8.674;2023-04-05T07:48:07;5.13;;;3.77;;
10596;SDS011;5346;48.766;8.674;2023-04-05T07:50:42;5.47;;;3.40;;
10596;SDS011;5346;48.766;8.674;2023-04-05T07:53:20;4.40;;;3.20;;
10596;SDS011;5346;48.766;8.674;2023-04-05T07:56:04;5.23;;;3.67;;
10596;SDS011;5346;48.766;8.674;2023-04-05T07:58:34;6.10;;;3.53;;
10596;SDS011;5346;48.766;8.674;2023-04-05T08:01:15;6.27;;;3.63;;
10596;SDS011;5346;48.766;8.674;2023-04-05T08:03:50;4.67;;;3.70;;
10596;SDS011;5346;48.766;8.674;2023-04-05T08:06:17;5.33;;;4.10;;
10596;SDS011;5346;48.766;8.674;2023-04-05T08:08:52;4.18;;;3.70;;
10596;SDS011;5346;48.766;8.674;2023-04-05T08:11:19;5.47;;;3.40;;
10596;SDS011;5346;48.766;8.674;2023-04-05T08:13:54;7.55;;;3.72;;
10596;SDS011;5346;48.766;8.674;2023-04-05T08:16:28;4.95;;;3.75;;
10596;SDS011;5346;48.766;8.674;2023-04-05T08:19:02;4.70;;;3.55;;
10596;SDS011;5346;48.766;8.674;2023-04-05T08:21:36;5.72;;;3.63;;
10596;SDS011;5346;48.766;8.674;2023-04-05T08:24:10;6.63;;;3.72;;
10596;SDS011;5346;48.766;8.674;2023-04-05T08:26:44;5.72;;;4.30;;
10596;SDS011;5346;48.766;8.674;2023-04-05T08:29:11;6.50;;;4.03;;
10596;SDS011;5346;48.766;8.674;2023-04-05T08:31:46;5.05;;;3.88;;
10596;SDS011;5346;48.766;8.674;2023-04-05T08:34:14;6.15;;;4.00;;
10596;SDS011;5346;48.766;8.674;2023-04-05T08:36:48;6.60;;;4.50;;
10596;SDS011;5346;48.766;8.674;2023-04-05T08:39:15;6.05;;;4.25;;
10596;SDS011;5346;48.766;8.674;2023-04-05T08:41:54;6.00;;;4.28;;
10596;SDS011;5346;48.766;8.674;2023-04-05T08:44:35;6.25;;;4.53;;
10596;SDS011;5346;48.766;8.674;2023-04-05T08:47:12;10.45;;;4.95;;
10596;SDS011;5346;48.766;8.674;2023-04-05T08:49:52;6.63;;;3.97;;
10596;SDS011;5346;48.766;8.674;2023-04-05T08:52:26;7.45;;;4.30;;
10596;SDS011;5346;48.766;8.674;2023-04-05T08:55:04;6.53;;;4.43;;
10596;SDS011;5346;48.766;8.674;2023-04-05T08:57:32;5.47;;;4.35;;
10596;SDS011;5346;48.766;8.674;2023-04-05T09:00:15;7.45;;;4.65;;
10596;SDS011;5346;48.766;8.674;2023-04-05T09:02:47;9.00;;;4.53;;
10596;SDS011;5346;48.766;8.674;2023-04-05T09:05:28;6.32;;;4.53;;
10596;SDS011;5346;48.766;8.674;2023-04-05T09:08:04;6.25;;;4.68;;
10596;SDS011;5346;48.766;8.674;2023-04-05T09:10:39;5.60;;;4.40;;
10596;SDS011;5346;48.766;8.674;2023-04-05T09:13:07;6.20;;;4.55;;
10596;SDS011;5346;48.766;8.674;2023-04-05T09:15:41;6.57;;;4.38;;
10596;SDS011;5346;48.766;8.674;2023-04-05T09:18:09;6.47;;;3.97;;
10596;SDS011;5346;48.766;8.674;2023-04-05T09:20:59;4.45;;;3.85;;
10596;SDS011;5346;48.766;8.674;2023-04-05T09:23:38;8.07;;;4.20;;
10596;SDS011;5346;48.766;8.674;2023-04-05T09:26:26;4.00;;;3.58;;
10596;SDS011;5346;48.766;8.674;2023-04-05T09:29:01;6.22;;;4.55;;
10596;SDS011;5346;48.766;8.674;2023-04-05T09:31:35;5.43;;;3.83;;
10596;SDS011;5346;48.766;8.674;2023-04-05T09:34:03;7.28;;;4.60;;
10596;SDS011;5346;48.766;8.674;2023-04-05T09:36:42;6.13;;;3.80;;
10596;SDS011;5346;48.766;8.674;2023-04-05T09:39:10;7.28;;;3.85;;
10596;SDS011;5346;48.766;8.674;2023-04-05T09:41:44;6.13;;;4.03;;
10596;SDS011;5346;48.766;8.674;2023-04-05T09:44:59;8.00;;;4.30;;
10596;SDS011;5346;48.766;8.674;2023-04-05T09:47:39;5.22;;;3.75;;
10596;SDS011;5346;48.766;8.674;2023-04-05T09:50:18;4.57;;;3.72;;
10596;SDS011;5346;48.766;8.674;2023-04-05T09:52:46;4.82;;;4.15;;
10596;SDS011;5346;48.766;8.674;2023-04-05T09:55:27;6.55;;;4.18;;
10596;SDS011;5346;48.766;8.674;2023-04-05T09:58:02;5.10;;;4.35;;
10596;SDS011;5346;48.766;8.674;2023-04-05T10:00:36;4.72;;;4.10;;
10596;SDS011;5346;48.766;8.674;2023-04-05T10:03:03;5.00;;;4.20;;
10596;SDS011;5346;48.766;8.674;2023-04-05T10:05:31;6.55;;;4.43;;
10596;SDS011;5346;48.766;8.674;2023-04-05T10:08:06;5.18;;;4.40;;
10596;SDS011;5346;48.766;8.674;2023-04-05T10:10:47;5.95;;;4.28;;
10596;SDS011;5346;48.766;8.674;2023-04-05T10:13:27;4.78;;;3.90;;
10596;SDS011;5346;48.766;8.674;2023-04-05T10:15:56;6.03;;;4.50;;
10596;SDS011;5346;48.766;8.674;2023-04-05T10:18:38;5.72;;;4.72;;
10596;SDS011;5346;48.766;8.674;2023-04-05T10:21:14;6.53;;;4.70;;
10596;SDS011;5346;48.766;8.674;2023-04-05T10:27:46;6.30;;;4.43;;
10596;SDS011;5346;48.766;8.674;2023-04-05T10:30:07;8.15;;;4.07;;
10596;SDS011;5346;48.766;8.674;2023-04-05T10:32:58;5.85;;;4.30;;
10596;SDS011;5346;48.766;8.674;2023-04-05T10:39:11;6.25;;;4.30;;
10596;SDS011;5346;48.766;8.674;2023-04-05T10:45:01;7.68;;;4.40;;
10596;SDS011;5346;48.766;8.674;2023-04-05T10:47:37;6.20;;;4.35;;
10596;SDS011;5346;48.766;8.674;2023-04-05T10:50:22;5.20;;;3.83;;
10596;SDS011;5346;48.766;8.674;2023-04-05T10:52:57;4.63;;;4.10;;
10596;SDS011;5346;48.766;8.674;2023-04-05T10:55:33;6.38;;;4.10;;
10596;SDS011;5346;48.766;8.674;2023-04-05T10:58:08;8.45;;;4.47;;
10596;SDS011;5346;48.766;8.674;2023-04-05T11:00:43;5.35;;;4.38;;
10596;SDS011;5346;48.766;8.674;2023-04-05T11:11:48;4.70;;;3.90;;
10596;SDS011;5346;48.766;8.674;2023-04-05T11:17:58;4.40;;;3.97;;
10596;SDS011;5346;48.766;8.674;2023-04-05T11:20:13;5.97;;;3.90;;
10596;SDS011;5346;48.766;8.674;2023-04-05T11:22:52;6.20;;;3.97;;
10596;SDS011;5346;48.766;8.674;2023-04-05T11:25:36;7.75;;;4.70;;
10596;SDS011;5346;48.766;8.674;2023-04-05T11:28:06;5.63;;;4.32;;
10596;SDS011;5346;48.766;8.674;2023-04-05T11:30:47;6.00;;;4.45;;
10596;SDS011;5346;48.766;8.674;2023-04-05T11:33:37;4.57;;;4.18;;
10596;SDS011;5346;48.766;8.674;2023-04-05T11:36:42;4.68;;;4.25;;
10596;SDS011;5346;48.766;8.674;2023-04-05T11:41:49;6.10;;;4.15;;
10596;SDS011;5346;48.766;8.674;2023-04-05T11:44:48;7.72;;;4.50;;
10596;SDS011;5346;48.766;8.674;2023-04-05T11:47:20;6.57;;;4.57;;
10596;SDS011;5346;48.766;8.674;2023-04-05T11:49:54;5.53;;;4.18;;
10596;SDS011;5346;48.766;8.674;2023-04-05T11:52:21;6.07;;;4.40;;
10596;SDS011;5346;48.766;8.674;2023-04-05T11:55:01;6.47;;;4.63;;
10596;SDS011;5346;48.766;8.674;2023-04-05T11:57:30;5.93;;;4.53;;
10596;SDS011;5346;48.766;8.674;2023-04-05T12:00:05;9.15;;;5.00;;
10596;SDS011;5346;48.766;8.674;2023-04-05T12:02:35;5.57;;;4.97;;
10596;SDS011;5346;48.766;8.674;2023-04-05T12:05:09;8.55;;;4.70;;
10596;SDS011;5346;48.766;8.674;2023-04-05T12:07:36;9.63;;;4.68;;
10596;SDS011;5346;48.766;8.674;2023-04-05T12:10:10;6.53;;;5.15;;
10596;SDS011;5346;48.766;8.674;2023-04-05T12:12:42;8.82;;;4.55;;
10596;SDS011;5346;48.766;8.674;2023-04-05T12:15:17;5.22;;;4.57;;
10596;SDS011;5346;48.766;8.674;2023-04-05T12:17:50;6.05;;;5.13;;
10596;SDS011;5346;48.766;8.674;2023-04-05T12:20:26;6.55;;;4.90;;
10596;SDS011;5346;48.766;8.674;2023-04-05T12:23:00;6.40;;;4.70;;
10596;SDS011;5346;48.766;8.674;2023-04-05T12:25:36;5.75;;;4.97;;
10596;SDS011;5346;48.766;8.674;2023-04-05T12:28:05;8.00;;;5.10;;
10596;SDS011;5346;48.766;8.674;2023-04-05T12:30:53;7.13;;;4.82;;
10596;SDS011;5346;48.766;8.674;2023-04-05T12:33:32;6.60;;;4.32;;
10596;SDS011;5346;48.766;8.674;2023-04-05T12:36:04;5.25;;;4.75;;
10596;SDS011;5346;48.766;8.674;2023-04-05T12:38:40;6.63;;;5.03;;
10596;SDS011;5346;48.766;8.674;2023-04-05T12:41:15;4.90;;;4.40;;
10596;SDS011;5346;48.766;8.674;2023-04-05T12:43:48;15.55;;;4.97;;
10596;SDS011;5346;48.766;8.674;2023-04-05T12:46:36;8.55;;;4.72;;
10596;SDS011;5346;48.766;8.674;2023-04-05T12:49:14;5.78;;;4.82;;
10596;SDS011;5346;48.766;8.674;2023-04-05T12:51:49;5.78;;;4.60;;
10596;SDS011;5346;48.766;8.674;2023-04-05T12:54:30;5.35;;;4.60;;
10596;SDS011;5346;48.766;8.674;2023-04-05T12:57:05;7.32;;;4.68;;
10596;SDS011;5346;48.766;8.674;2023-04-05T12:59:37;6.25;;;4.57;;
10596;SDS011;5346;48.766;8.674;2023-04-05T13:02:11;5.30;;;4.28;;
10596;SDS011;5346;48.766;8.674;2023-04-05T13:04:39;6.47;;;4.80;;
10596;SDS011;5346;48.766;8.674;2023-04-05T13:07:13;7.18;;;4.40;;
10596;SDS011;5346;48.766;8.674;2023-04-05T13:09:47;7.70;;;4.70;;
10596;SDS011;5346;48.766;8.674;2023-04-05T13:12:20;5.60;;;4.53;;
10596;SDS011;5346;48.766;8.674;2023-04-05T13:14:48;5.40;;;4.45;;
10596;SDS011;5346;48.766;8.674;2023-04-05T13:17:21;7.07;;;5.20;;
10596;SDS011;5346;48.766;8.674;2023-04-05T13:19:48;5.78;;;5.00;;
10596;SDS011;5346;48.766;8.674;2023-04-05T13:22:22;9.50;;;5.10;;
10596;SDS011;5346;48.766;8.674;2023-04-05T13:24:56;6.10;;;4.97;;
10596;SDS011;5346;48.766;8.674;2023-04-05T13:27:32;11.48;;;5.30;;
10596;SDS011;5346;48.766;8.674;2023-04-05T13:30:06;6.22;;;5.22;;
10596;SDS011;5346;48.766;8.674;2023-04-05T13:32:34;6.65;;;5.10;;
10596;SDS011;5346;48.766;8.674;2023-04-05T13:35:08;6.65;;;4.60;;
10596;SDS011;5346;48.766;8.674;2023-04-05T13:37:36;4.88;;;4.38;;
10596;SDS011;5346;48.766;8.674;2023-04-05T13:40:10;6.28;;;4.53;;
10596;SDS011;5346;48.766;8.674;2023-04-05T13:42:38;5.40;;;4.38;;
10596;SDS011;5346;48.766;8.674;2023-04-05T13:45:13;5.43;;;4.15;;
10596;SDS011;5346;48.766;8.674;2023-04-05T13:47:46;5.22;;;4.25;;
10596;SDS011;5346;48.766;8.674;2023-04-05T13:50:21;6.20;;;4.75;;
10596;SDS011;5346;48.766;8.674;2023-04-05T13:52:54;5.47;;;4.70;;
10596;SDS011;5346;48.766;8.674;2023-04-05T13:55:29;7.30;;;4.45;;
10596;SDS011;5346;48.766;8.674;2023-04-05T13:58:02;4.50;;;4.10;;
10596;SDS011;5346;48.766;8.674;2023-04-05T14:00:30;5.55;;;4.20;;
10596;SDS011;5346;48.766;8.674;2023-04-05T14:03:06;8.05;;;4.60;;
10596;SDS011;5346;48.766;8.674;2023-04-05T14:05:33;6.53;;;4.63;;
10596;SDS011;5346;48.766;8.674;2023-04-05T14:08:08;5.20;;;4.60;;
10596;SDS011;5346;48.766;8.674;2023-04-05T14:10:35;5.65;;;4.25;;
10596;SDS011;5346;48.766;8.674;2023-04-05T14:13:09;4.82;;;4.30;;
10596;SDS011;5346;48.766;8.674;2023-04-05T14:15:44;7.60;;;4.78;;
10596;SDS011;5346;48.766;8.674;2023-04-05T14:18:21;8.23;;;4.82;;
10596;SDS011;5346;48.766;8.674;2023-04-05T14:20:54;6.35;;;4.63;;
10596;SDS011;5346;48.766;8.674;2023-04-05T14:23:29;6.90;;;5.03;;
10596;SDS011;5346;48.766;8.674;2023-04-05T14:26:02;5.40;;;4.88;;
10596;SDS011;5346;48.766;8.674;2023-04-05T14:28:37;7.22;;;4.85;;
10596;SDS011;5346;48.766;8.674;2023-04-05T14:31:04;5.50;;;5.00;;
10596;SDS011;5346;48.766;8.674;2023-04-05T14:33:38;8.38;;;4.97;;
10596;SDS011;5346;48.766;8.674;2023-04-05T14:36:11;6.63;;;5.25;;
10596;SDS011;5346;48.766;8.674;2023-04-05T14:38:46;8.45;;;4.82;;
10596;SDS011;5346;48.766;8.674;2023-04-05T14:41:20;10.18;;;5.50;;
10596;SDS011;5346;48.766;8.674;2023-04-05T14:43:54;7.32;;;5.72;;
10596;SDS011;5346;48.766;8.674;2023-04-05T14:46:21;7.80;;;6.03;;
10596;SDS011;5346;48.766;8.674;2023-04-05T14:48:55;8.18;;;5.53;;
10596;SDS011;5346;48.766;8.674;2023-04-05T14:51:28;7.93;;;5.15;;
10596;SDS011;5346;48.766;8.674;2023-04-05T14:54:09;8.38;;;5.15;;
10596;SDS011;5346;48.766;8.674;2023-04-05T14:56:42;5.47;;;4.63;;
10596;SDS011;5346;48.766;8.674;2023-04-05T14:59:17;5.80;;;5.20;;
10596;SDS011;5346;48.766;8.674;2023-04-05T15:01:51;9.02;;;5.47;;
10596;SDS011;5346;48.766;8.674;2023-04-05T15:04:25;5.53;;;4.70;;
10596;SDS011;5346;48.766;8.674;2023-04-05T15:06:53;7.47;;;4.78;;
10596;SDS011;5346;48.766;8.674;2023-04-05T15:09:27;6.10;;;5.07;;
10596;SDS011;5346;48.766;8.674;2023-04-05T15:11:54;5.07;;;4.57;;
10596;SDS011;5346;48.766;8.674;2023-04-05T15:14:29;7.97;;;5.00;;
10596;SDS011;5346;48.766;8.674;2023-04-05T15:16:57;7.88;;;4.90;;
10596;SDS011;5346;48.766;8.674;2023-04-05T15:19:32;7.25;;;5.20;;
10596;SDS011;5346;48.766;8.674;2023-04-05T15:22:00;7.35;;;4.50;;
10596;SDS011;5346;48.766;8.674;2023-04-05T15:24:36;6.57;;;4.53;;
10596;SDS011;5346;48.766;8.674;2023-04-05T15:27:04;7.78;;;4.85;;
10596;SDS011;5346;48.766;8.674;2023-04-05T15:29:37;6.90;;;5.18;;
10596;SDS011;5346;48.766;8.674;2023-04-05T15:32:05;5.60;;;4.70;;
10596;SDS011;5346;48.766;8.674;2023-04-05T15:34:39;6.75;;;5.30;;
10596;SDS011;5346;48.766;8.674;2023-04-05T15:37:12;7.43;;;5.40;;
10596;SDS011;5346;48.766;8.674;2023-04-05T15:39:46;7.45;;;4.70;;
10596;SDS011;5346;48.766;8.674;2023-04-05T15:42:20;5.88;;;5.22;;
10596;SDS011;5346;48.766;8.674;2023-04-05T15:44:54;7.28;;;4.80;;
10596;SDS011;5346;48.766;8.674;2023-04-05T15:47:28;6.85;;;5.55;;
10596;SDS011;5346;48.766;8.674;2023-04-05T15:49:56;6.65;;;5.05;;
10596;SDS011;5346;48.766;8.674;2023-04-05T15:52:30;6.03;;;5.43;;
10596;SDS011;5346;48.766;8.674;2023-04-05T15:55:17;7.15;;;4.97;;
10596;SDS011;5346;48.766;8.674;2023-04-05T15:57:51;6.85;;;5.38;;
10596;SDS011;5346;48.766;8.674;2023-04-05T16:00:27;7.05;;;5.78;;
10596;SDS011;5346;48.766;8.674;2023-04-05T16:02:54;8.65;;;6.07;;
10596;SDS011;5346;48.766;8.674;2023-04-05T16:05:31;8.32;;;4.85;;
10596;SDS011;5346;48.766;8.674;2023-04-05T16:08:05;10.02;;;5.22;;
10596;SDS011;5346;48.766;8.674;2023-04-05T16:10:33;7.82;;;5.32;;
10596;SDS011;5346;48.766;8.674;2023-04-05T16:13:08;6.03;;;4.78;;
10596;SDS011;5346;48.766;8.674;2023-04-05T16:15:38;8.20;;;5.47;;